sensor_id;sensor_type;location;lat;lon;timestamp;P1;durP1;ratioP1;P2;durP2;ratioP2
7057;SDS011;3570;43.080;25.628;2022-08-19T00:00:52;14.57;;;11.47;;
7057;SDS011;3570;43.080;25.628;2022-08-19T00:03:36;22.43;;;14.47;;
7057;SDS011;3570;43.080;25.628;2022-08-19T00:06:19;17.90;;;13.97;;
7057;SDS011;3570;43.080;25.628;2022-08-19T00:09:04;21.77;;;14.27;;
7057;SDS011;3570;43.080;25.628;2022-08-19T00:11:52;21.20;;;15.67;;
7057;SDS011;3570;43.080;25.628;2022-08-19T00:14:40;25.60;;;14.50;;
7057;SDS011;3570;43.080;25.628;2022-08-19T00:17:25;17.20;;;13.47;;
7057;SDS011;3570;43.080;25.628;2022-08-19T00:20:10;18.60;;;13.13;;
7057;SDS011;3570;43.080;25.628;2022-08-19T00:22:56;14.83;;;12.67;;
7057;SDS011;3570;43.080;25.628;2022-08-19T00:25:42;16.40;;;13.97;;
7057;SDS011;3570;43.080;25.628;2022-08-19T00:28:26;16.73;;;13.87;;
7057;SDS011;3570;43.080;25.628;2022-08-19T00:31:10;15.77;;;12.93;;
7057;SDS011;3570;43.080;25.628;2022-08-19T00:33:54;13.90;;;12.43;;
7057;SDS011;3570;43.080;25.628;2022-08-19T00:36:39;18.73;;;12.73;;
7057;SDS011;3570;43.080;25.628;2022-08-19T00:39:23;15.70;;;11.70;;
7057;SDS011;3570;43.080;25.628;2022-08-19T00:42:07;16.87;;;11.63;;
7057;SDS011;3570;43.080;25.628;2022-08-19T00:44:51;17.67;;;11.13;;
7057;SDS011;3570;43.080;25.628;2022-08-19T00:47:35;15.13;;;11.70;;
7057;SDS011;3570;43.080;25.628;2022-08-19T00:50:19;17.90;;;11.30;;
7057;SDS011;3570;43.080;25.628;2022-08-19T00:53:05;18.00;;;11.17;;
7057;SDS011;3570;43.080;25.628;2022-08-19T00:55:50;14.93;;;10.73;;
7057;SDS011;3570;43.080;25.628;2022-08-19T00:58:37;13.93;;;11.23;;
7057;SDS011;3570;43.080;25.628;2022-08-19T01:01:21;14.40;;;11.67;;
7057;SDS011;3570;43.080;25.628;2022-08-19T01:04:05;16.97;;;13.20;;
7057;SDS011;3570;43.080;25.628;2022-08-19T01:06:49;19.17;;;13.80;;
7057;SDS011;3570;43.080;25.628;2022-08-19T01:09:33;14.70;;;12.87;;
7057;SDS011;3570;43.080;25.628;2022-08-19T01:12:18;15.10;;;12.00;;
7057;SDS011;3570;43.080;25.628;2022-08-19T01:15:03;16.33;;;12.60;;
7057;SDS011;3570;43.080;25.628;2022-08-19T01:17:48;14.13;;;12.57;;
7057;SDS011;3570;43.080;25.628;2022-08-19T01:20:34;22.57;;;14.07;;
7057;SDS011;3570;43.080;25.628;2022-08-19T01:23:18;15.13;;;12.13;;
7057;SDS011;3570;43.080;25.628;2022-08-19T01:26:11;17.73;;;12.20;;
7057;SDS011;3570;43.080;25.628;2022-08-19T01:28:58;14.50;;;11.73;;
7057;SDS011;3570;43.080;25.628;2022-08-19T01:31:44;17.87;;;12.33;;
7057;SDS011;3570;43.080;25.628;2022-08-19T01:34:28;13.97;;;11.57;;
7057;SDS011;3570;43.080;25.628;2022-08-19T01:37:12;15.77;;;12.23;;
7057;SDS011;3570;43.080;25.628;2022-08-19T01:39:58;16.10;;;11.93;;
7057;SDS011;3570;43.080;25.628;2022-08-19T01:42:41;15.63;;;12.10;;
7057;SDS011;3570;43.080;25.628;2022-08-19T01:45:26;11.70;;;10.50;;
7057;SDS011;3570;43.080;25.628;2022-08-19T01:48:12;18.40;;;11.10;;
7057;SDS011;3570;43.080;25.628;2022-08-19T01:50:57;12.27;;;10.80;;
7057;SDS011;3570;43.080;25.628;2022-08-19T01:53:41;15.60;;;11.83;;
7057;SDS011;3570;43.080;25.628;2022-08-19T01:56:25;13.87;;;11.47;;
7057;SDS011;3570;43.080;25.628;2022-08-19T01:59:11;15.17;;;11.50;;
7057;SDS011;3570;43.080;25.628;2022-08-19T02:01:59;13.63;;;11.50;;
7057;SDS011;3570;43.080;25.628;2022-08-19T02:04:43;16.40;;;11.73;;
7057;SDS011;3570;43.080;25.628;2022-08-19T02:07:29;13.10;;;11.17;;
7057;SDS011;3570;43.080;25.628;2022-08-19T02:10:15;15.07;;;11.27;;
7057;SDS011;3570;43.080;25.628;2022-08-19T02:13:03;16.00;;;12.03;;
7057;SDS011;3570;43.080;25.628;2022-08-19T02:15:47;15.73;;;12.37;;
7057;SDS011;3570;43.080;25.628;2022-08-19T02:18:31;18.97;;;14.07;;
7057;SDS011;3570;43.080;25.628;2022-08-19T02:21:15;16.60;;;12.43;;
7057;SDS011;3570;43.080;25.628;2022-08-19T02:24:01;17.70;;;12.60;;
7057;SDS011;3570;43.080;25.628;2022-08-19T02:26:45;14.60;;;13.00;;
7057;SDS011;3570;43.080;25.628;2022-08-19T02:29:29;14.87;;;12.37;;
7057;SDS011;3570;43.080;25.628;2022-08-19T02:32:13;19.07;;;12.37;;
7057;SDS011;3570;43.080;25.628;2022-08-19T02:35:02;15.80;;;11.87;;
7057;SDS011;3570;43.080;25.628;2022-08-19T02:37:46;14.60;;;12.20;;
7057;SDS011;3570;43.080;25.628;2022-08-19T02:40:50;15.80;;;12.10;;
7057;SDS011;3570;43.080;25.628;2022-08-19T02:43:36;15.43;;;12.73;;
7057;SDS011;3570;43.080;25.628;2022-08-19T02:46:23;13.70;;;11.67;;
7057;SDS011;3570;43.080;25.628;2022-08-19T02:49:10;13.77;;;12.03;;
7057;SDS011;3570;43.080;25.628;2022-08-19T02:51:54;13.63;;;11.80;;
7057;SDS011;3570;43.080;25.628;2022-08-19T02:54:38;16.37;;;13.37;;
7057;SDS011;3570;43.080;25.628;2022-08-19T02:57:22;15.43;;;12.30;;
7057;SDS011;3570;43.080;25.628;2022-08-19T03:00:06;16.60;;;14.17;;
7057;SDS011;3570;43.080;25.628;2022-08-19T03:02:53;17.83;;;13.00;;
7057;SDS011;3570;43.080;25.628;2022-08-19T03:05:37;19.53;;;12.33;;
7057;SDS011;3570;43.080;25.628;2022-08-19T03:08:22;15.77;;;12.53;;
7057;SDS011;3570;43.080;25.628;2022-08-19T03:11:18;18.57;;;12.33;;
7057;SDS011;3570;43.080;25.628;2022-08-19T03:14:11;15.33;;;12.70;;
7057;SDS011;3570;43.080;25.628;2022-08-19T03:16:56;14.67;;;12.00;;
7057;SDS011;3570;43.080;25.628;2022-08-19T03:19:40;19.07;;;14.10;;
7057;SDS011;3570;43.080;25.628;2022-08-19T03:22:25;15.27;;;12.33;;
7057;SDS011;3570;43.080;25.628;2022-08-19T03:25:09;20.80;;;14.20;;
7057;SDS011;3570;43.080;25.628;2022-08-19T03:27:54;18.57;;;13.43;;
7057;SDS011;3570;43.080;25.628;2022-08-19T03:30:39;24.27;;;14.07;;
7057;SDS011;3570;43.080;25.628;2022-08-19T03:33:25;18.87;;;14.40;;
7057;SDS011;3570;43.080;25.628;2022-08-19T03:38:57;17.63;;;13.33;;
7057;SDS011;3570;43.080;25.628;2022-08-19T03:41:43;17.23;;;13.70;;
7057;SDS011;3570;43.080;25.628;2022-08-19T03:44:29;17.33;;;13.00;;
7057;SDS011;3570;43.080;25.628;2022-08-19T03:47:13;17.47;;;13.40;;
7057;SDS011;3570;43.080;25.628;2022-08-19T03:50:00;16.47;;;12.87;;
7057;SDS011;3570;43.080;25.628;2022-08-19T03:52:51;25.00;;;12.93;;
7057;SDS011;3570;43.080;25.628;2022-08-19T03:55:39;15.50;;;11.80;;
7057;SDS011;3570;43.080;25.628;2022-08-19T03:58:25;12.40;;;11.10;;
7057;SDS011;3570;43.080;25.628;2022-08-19T04:01:13;13.40;;;11.53;;
7057;SDS011;3570;43.080;25.628;2022-08-19T04:03:59;12.47;;;11.13;;
7057;SDS011;3570;43.080;25.628;2022-08-19T04:06:44;17.67;;;12.03;;
7057;SDS011;3570;43.080;25.628;2022-08-19T04:09:30;14.20;;;11.63;;
7057;SDS011;3570;43.080;25.628;2022-08-19T04:12:16;23.60;;;11.43;;
7057;SDS011;3570;43.080;25.628;2022-08-19T04:15:00;16.40;;;11.10;;
7057;SDS011;3570;43.080;25.628;2022-08-19T04:17:44;13.73;;;11.10;;
7057;SDS011;3570;43.080;25.628;2022-08-19T04:20:28;14.03;;;10.80;;
7057;SDS011;3570;43.080;25.628;2022-08-19T04:23:12;15.00;;;10.93;;
7057;SDS011;3570;43.080;25.628;2022-08-19T04:25:57;16.43;;;12.07;;
7057;SDS011;3570;43.080;25.628;2022-08-19T04:28:42;20.27;;;12.27;;
7057;SDS011;3570;43.080;25.628;2022-08-19T04:31:28;19.67;;;12.00;;
7057;SDS011;3570;43.080;25.628;2022-08-19T04:34:15;15.10;;;12.63;;
7057;SDS011;3570;43.080;25.628;2022-08-19T04:37:00;22.40;;;13.83;;
7057;SDS011;3570;43.080;25.628;2022-08-19T04:39:45;15.63;;;12.43;;
7057;SDS011;3570;43.080;25.628;2022-08-19T04:42:47;22.17;;;14.80;;
7057;SDS011;3570;43.080;25.628;2022-08-19T04:45:31;19.20;;;14.17;;
7057;SDS011;3570;43.080;25.628;2022-08-19T04:48:15;22.23;;;14.60;;
7057;SDS011;3570;43.080;25.628;2022-08-19T04:51:04;20.63;;;15.37;;
7057;SDS011;3570;43.080;25.628;2022-08-19T04:53:51;19.43;;;15.37;;
7057;SDS011;3570;43.080;25.628;2022-08-19T04:56:36;17.70;;;13.60;;
7057;SDS011;3570;43.080;25.628;2022-08-19T04:59:20;15.23;;;13.63;;
7057;SDS011;3570;43.080;25.628;2022-08-19T05:02:06;21.33;;;15.70;;
7057;SDS011;3570;43.080;25.628;2022-08-19T05:04:56;26.23;;;15.43;;
7057;SDS011;3570;43.080;25.628;2022-08-19T05:07:43;19.13;;;14.13;;
7057;SDS011;3570;43.080;25.628;2022-08-19T05:10:27;23.37;;;14.23;;
7057;SDS011;3570;43.080;25.628;2022-08-19T05:13:11;19.43;;;14.23;;
7057;SDS011;3570;43.080;25.628;2022-08-19T05:15:56;18.53;;;14.60;;
7057;SDS011;3570;43.080;25.628;2022-08-19T05:18:41;15.53;;;13.87;;
7057;SDS011;3570;43.080;25.628;2022-08-19T05:21:44;19.13;;;14.47;;
7057;SDS011;3570;43.080;25.628;2022-08-19T05:24:48;18.10;;;12.37;;
7057;SDS011;3570;43.080;25.628;2022-08-19T05:27:32;19.40;;;13.07;;
7057;SDS011;3570;43.080;25.628;2022-08-19T05:30:17;18.83;;;13.73;;
7057;SDS011;3570;43.080;25.628;2022-08-19T05:33:01;15.83;;;12.83;;
7057;SDS011;3570;43.080;25.628;2022-08-19T05:35:45;19.27;;;14.90;;
7057;SDS011;3570;43.080;25.628;2022-08-19T05:38:29;19.73;;;15.30;;
7057;SDS011;3570;43.080;25.628;2022-08-19T05:41:14;23.67;;;16.67;;
7057;SDS011;3570;43.080;25.628;2022-08-19T05:44:03;26.60;;;17.27;;
7057;SDS011;3570;43.080;25.628;2022-08-19T05:46:50;28.80;;;19.23;;
7057;SDS011;3570;43.080;25.628;2022-08-19T05:49:37;26.93;;;18.37;;
7057;SDS011;3570;43.080;25.628;2022-08-19T05:52:21;21.93;;;17.77;;
7057;SDS011;3570;43.080;25.628;2022-08-19T05:55:05;32.97;;;20.40;;
7057;SDS011;3570;43.080;25.628;2022-08-19T05:57:50;25.80;;;19.23;;
7057;SDS011;3570;43.080;25.628;2022-08-19T06:00:35;24.70;;;17.87;;
7057;SDS011;3570;43.080;25.628;2022-08-19T06:03:20;25.77;;;20.37;;
7057;SDS011;3570;43.080;25.628;2022-08-19T06:06:04;22.70;;;18.07;;
7057;SDS011;3570;43.080;25.628;2022-08-19T06:08:50;28.13;;;22.87;;
7057;SDS011;3570;43.080;25.628;2022-08-19T06:11:35;29.27;;;21.40;;
7057;SDS011;3570;43.080;25.628;2022-08-19T06:14:23;24.67;;;19.67;;
7057;SDS011;3570;43.080;25.628;2022-08-19T06:17:09;26.43;;;20.50;;
7057;SDS011;3570;43.080;25.628;2022-08-19T06:19:53;28.10;;;20.70;;
7057;SDS011;3570;43.080;25.628;2022-08-19T06:22:38;24.30;;;20.20;;
7057;SDS011;3570;43.080;25.628;2022-08-19T06:25:26;21.77;;;16.37;;
7057;SDS011;3570;43.080;25.628;2022-08-19T06:28:10;25.70;;;17.63;;
7057;SDS011;3570;43.080;25.628;2022-08-19T06:30:54;21.33;;;16.40;;
7057;SDS011;3570;43.080;25.628;2022-08-19T06:33:38;21.33;;;17.00;;
7057;SDS011;3570;43.080;25.628;2022-08-19T06:36:24;21.00;;;16.63;;
7057;SDS011;3570;43.080;25.628;2022-08-19T06:39:22;23.77;;;15.47;;
7057;SDS011;3570;43.080;25.628;2022-08-19T06:42:10;17.97;;;14.67;;
7057;SDS011;3570;43.080;25.628;2022-08-19T06:44:59;24.93;;;15.77;;
7057;SDS011;3570;43.080;25.628;2022-08-19T06:47:46;17.53;;;13.37;;
7057;SDS011;3570;43.080;25.628;2022-08-19T06:50:32;14.83;;;10.97;;
7057;SDS011;3570;43.080;25.628;2022-08-19T06:53:16;15.27;;;10.93;;
7057;SDS011;3570;43.080;25.628;2022-08-19T06:56:02;17.27;;;11.65;;
7057;SDS011;3570;43.080;25.628;2022-08-19T06:58:46;16.33;;;10.77;;
7057;SDS011;3570;43.080;25.628;2022-08-19T07:01:39;17.52;;;9.75;;
7057;SDS011;3570;43.080;25.628;2022-08-19T07:04:26;16.67;;;10.30;;
7057;SDS011;3570;43.080;25.628;2022-08-19T07:07:15;14.50;;;10.07;;
7057;SDS011;3570;43.080;25.628;2022-08-19T07:09:58;13.35;;;10.40;;
7057;SDS011;3570;43.080;25.628;2022-08-19T07:12:43;16.88;;;10.23;;
7057;SDS011;3570;43.080;25.628;2022-08-19T07:15:27;15.73;;;9.65;;
7057;SDS011;3570;43.080;25.628;2022-08-19T07:18:11;19.25;;;9.40;;
7057;SDS011;3570;43.080;25.628;2022-08-19T07:21:05;12.45;;;8.10;;
7057;SDS011;3570;43.080;25.628;2022-08-19T07:23:51;13.52;;;8.38;;
7057;SDS011;3570;43.080;25.628;2022-08-19T07:26:40;16.33;;;9.20;;
7057;SDS011;3570;43.080;25.628;2022-08-19T07:29:26;11.10;;;8.05;;
7057;SDS011;3570;43.080;25.628;2022-08-19T07:32:11;12.70;;;8.77;;
7057;SDS011;3570;43.080;25.628;2022-08-19T07:34:55;17.35;;;8.50;;
7057;SDS011;3570;43.080;25.628;2022-08-19T07:37:39;22.67;;;9.30;;
7057;SDS011;3570;43.080;25.628;2022-08-19T07:40:27;22.50;;;8.63;;
7057;SDS011;3570;43.080;25.628;2022-08-19T07:43:12;14.43;;;8.05;;
7057;SDS011;3570;43.080;25.628;2022-08-19T07:45:56;21.85;;;10.63;;
7057;SDS011;3570;43.080;25.628;2022-08-19T07:48:41;13.30;;;8.63;;
7057;SDS011;3570;43.080;25.628;2022-08-19T07:51:30;10.85;;;7.88;;
7057;SDS011;3570;43.080;25.628;2022-08-19T07:54:14;10.23;;;8.00;;
7057;SDS011;3570;43.080;25.628;2022-08-19T07:56:58;10.68;;;7.53;;
7057;SDS011;3570;43.080;25.628;2022-08-19T07:59:42;14.18;;;7.07;;
7057;SDS011;3570;43.080;25.628;2022-08-19T08:02:26;8.80;;;7.53;;
7057;SDS011;3570;43.080;25.628;2022-08-19T08:05:10;17.52;;;8.20;;
7057;SDS011;3570;43.080;25.628;2022-08-19T08:08:13;19.15;;;9.50;;
7057;SDS011;3570;43.080;25.628;2022-08-19T08:11:17;8.15;;;7.30;;
7057;SDS011;3570;43.080;25.628;2022-08-19T08:14:02;8.50;;;7.55;;
7057;SDS011;3570;43.080;25.628;2022-08-19T08:16:48;13.38;;;7.28;;
7057;SDS011;3570;43.080;25.628;2022-08-19T08:19:34;11.85;;;7.50;;
7057;SDS011;3570;43.080;25.628;2022-08-19T08:22:20;16.05;;;8.82;;
7057;SDS011;3570;43.080;25.628;2022-08-19T08:25:24;13.05;;;7.68;;
7057;SDS011;3570;43.080;25.628;2022-08-19T08:28:09;11.18;;;7.85;;
7057;SDS011;3570;43.080;25.628;2022-08-19T08:30:54;17.20;;;7.80;;
7057;SDS011;3570;43.080;25.628;2022-08-19T08:33:39;10.93;;;7.45;;
7057;SDS011;3570;43.080;25.628;2022-08-19T08:36:25;11.30;;;7.43;;
7057;SDS011;3570;43.080;25.628;2022-08-19T08:39:14;14.00;;;7.32;;
7057;SDS011;3570;43.080;25.628;2022-08-19T08:42:22;13.75;;;8.13;;
7057;SDS011;3570;43.080;25.628;2022-08-19T08:45:14;9.07;;;7.38;;
7057;SDS011;3570;43.080;25.628;2022-08-19T08:48:03;9.15;;;6.85;;
7057;SDS011;3570;43.080;25.628;2022-08-19T08:50:56;15.07;;;7.43;;
7057;SDS011;3570;43.080;25.628;2022-08-19T08:53:42;12.98;;;7.22;;
7057;SDS011;3570;43.080;25.628;2022-08-19T08:56:28;10.32;;;7.90;;
7057;SDS011;3570;43.080;25.628;2022-08-19T09:02:21;10.98;;;7.30;;
7057;SDS011;3570;43.080;25.628;2022-08-19T09:05:05;10.55;;;6.65;;
7057;SDS011;3570;43.080;25.628;2022-08-19T09:10:43;12.52;;;6.40;;
7057;SDS011;3570;43.080;25.628;2022-08-19T09:16:49;11.27;;;7.03;;
7057;SDS011;3570;43.080;25.628;2022-08-19T09:19:36;11.90;;;7.82;;
7057;SDS011;3570;43.080;25.628;2022-08-19T09:22:39;8.90;;;7.07;;
7057;SDS011;3570;43.080;25.628;2022-08-19T09:25:27;10.45;;;7.18;;
7057;SDS011;3570;43.080;25.628;2022-08-19T09:28:11;11.45;;;7.70;;
7057;SDS011;3570;43.080;25.628;2022-08-19T09:30:55;8.15;;;6.57;;
7057;SDS011;3570;43.080;25.628;2022-08-19T09:33:39;9.77;;;6.15;;
7057;SDS011;3570;43.080;25.628;2022-08-19T09:36:27;8.30;;;6.75;;
7057;SDS011;3570;43.080;25.628;2022-08-19T09:39:16;8.55;;;5.93;;
7057;SDS011;3570;43.080;25.628;2022-08-19T09:41:59;9.48;;;6.88;;
7057;SDS011;3570;43.080;25.628;2022-08-19T09:44:44;7.32;;;6.63;;
7057;SDS011;3570;43.080;25.628;2022-08-19T09:47:28;12.05;;;7.15;;
7057;SDS011;3570;43.080;25.628;2022-08-19T09:50:13;10.68;;;7.00;;
7057;SDS011;3570;43.080;25.628;2022-08-19T09:52:57;10.48;;;6.97;;
7057;SDS011;3570;43.080;25.628;2022-08-19T09:55:42;11.77;;;6.63;;
7057;SDS011;3570;43.080;25.628;2022-08-19T09:58:27;8.65;;;7.28;;
7057;SDS011;3570;43.080;25.628;2022-08-19T10:01:17;7.63;;;6.15;;
7057;SDS011;3570;43.080;25.628;2022-08-19T10:04:03;6.75;;;5.65;;
7057;SDS011;3570;43.080;25.628;2022-08-19T10:06:55;9.52;;;6.45;;
7057;SDS011;3570;43.080;25.628;2022-08-19T10:09:39;6.72;;;6.00;;
7057;SDS011;3570;43.080;25.628;2022-08-19T10:12:24;6.55;;;5.95;;
7057;SDS011;3570;43.080;25.628;2022-08-19T10:15:08;9.40;;;6.10;;
7057;SDS011;3570;43.080;25.628;2022-08-19T10:17:53;7.78;;;6.43;;
7057;SDS011;3570;43.080;25.628;2022-08-19T10:20:37;7.70;;;6.15;;
7057;SDS011;3570;43.080;25.628;2022-08-19T10:23:21;5.93;;;5.35;;
7057;SDS011;3570;43.080;25.628;2022-08-19T10:26:05;8.95;;;5.75;;
7057;SDS011;3570;43.080;25.628;2022-08-19T10:28:51;7.50;;;5.88;;
7057;SDS011;3570;43.080;25.628;2022-08-19T10:31:35;7.47;;;5.55;;
7057;SDS011;3570;43.080;25.628;2022-08-19T10:34:19;6.50;;;5.90;;
7057;SDS011;3570;43.080;25.628;2022-08-19T10:37:04;8.70;;;6.32;;
7057;SDS011;3570;43.080;25.628;2022-08-19T10:39:49;10.20;;;5.93;;
7057;SDS011;3570;43.080;25.628;2022-08-19T10:42:33;7.88;;;5.47;;
7057;SDS011;3570;43.080;25.628;2022-08-19T10:45:18;9.80;;;5.45;;
7057;SDS011;3570;43.080;25.628;2022-08-19T10:48:05;8.60;;;5.97;;
7057;SDS011;3570;43.080;25.628;2022-08-19T10:50:49;9.90;;;5.88;;
7057;SDS011;3570;43.080;25.628;2022-08-19T10:53:52;7.45;;;5.43;;
7057;SDS011;3570;43.080;25.628;2022-08-19T10:56:37;6.28;;;5.40;;
7057;SDS011;3570;43.080;25.628;2022-08-19T10:59:47;8.13;;;6.10;;
7057;SDS011;3570;43.080;25.628;2022-08-19T11:02:31;8.93;;;5.82;;
7057;SDS011;3570;43.080;25.628;2022-08-19T11:05:17;6.65;;;5.72;;
7057;SDS011;3570;43.080;25.628;2022-08-19T11:08:01;8.98;;;5.35;;
7057;SDS011;3570;43.080;25.628;2022-08-19T11:10:46;10.13;;;5.90;;
7057;SDS011;3570;43.080;25.628;2022-08-19T11:13:30;6.78;;;5.78;;
7057;SDS011;3570;43.080;25.628;2022-08-19T11:16:17;8.52;;;5.15;;
7057;SDS011;3570;43.080;25.628;2022-08-19T11:19:03;7.18;;;5.25;;
7057;SDS011;3570;43.080;25.628;2022-08-19T11:21:48;6.40;;;5.20;;
7057;SDS011;3570;43.080;25.628;2022-08-19T11:24:33;7.20;;;5.18;;
7057;SDS011;3570;43.080;25.628;2022-08-19T11:27:17;7.15;;;5.30;;
7057;SDS011;3570;43.080;25.628;2022-08-19T11:30:02;5.70;;;5.10;;
7057;SDS011;3570;43.080;25.628;2022-08-19T11:32:47;6.38;;;5.75;;
7057;SDS011;3570;43.080;25.628;2022-08-19T11:35:32;8.38;;;5.20;;
7057;SDS011;3570;43.080;25.628;2022-08-19T11:38:17;6.47;;;4.72;;
7057;SDS011;3570;43.080;25.628;2022-08-19T11:41:03;9.15;;;5.18;;
7057;SDS011;3570;43.080;25.628;2022-08-19T11:43:52;8.55;;;5.88;;
7057;SDS011;3570;43.080;25.628;2022-08-19T11:46:38;5.65;;;5.10;;
7057;SDS011;3570;43.080;25.628;2022-08-19T11:49:23;7.30;;;5.72;;
7057;SDS011;3570;43.080;25.628;2022-08-19T11:52:06;6.65;;;5.93;;
7057;SDS011;3570;43.080;25.628;2022-08-19T11:54:50;6.85;;;5.55;;
7057;SDS011;3570;43.080;25.628;2022-08-19T11:57:34;7.82;;;6.10;;
7057;SDS011;3570;43.080;25.628;2022-08-19T12:00:18;9.20;;;6.15;;
7057;SDS011;3570;43.080;25.628;2022-08-19T12:03:03;11.23;;;5.75;;
7057;SDS011;3570;43.080;25.628;2022-08-19T12:05:47;6.47;;;5.70;;
7057;SDS011;3570;43.080;25.628;2022-08-19T12:08:33;10.60;;;5.90;;
7057;SDS011;3570;43.080;25.628;2022-08-19T12:11:18;6.72;;;5.75;;
7057;SDS011;3570;43.080;25.628;2022-08-19T12:14:02;9.50;;;5.30;;
7057;SDS011;3570;43.080;25.628;2022-08-19T12:16:47;8.95;;;5.43;;
7057;SDS011;3570;43.080;25.628;2022-08-19T12:19:31;7.78;;;4.65;;
7057;SDS011;3570;43.080;25.628;2022-08-19T12:22:16;5.82;;;5.18;;
7057;SDS011;3570;43.080;25.628;2022-08-19T12:25:02;5.38;;;4.15;;
7057;SDS011;3570;43.080;25.628;2022-08-19T12:27:47;6.78;;;4.40;;
7057;SDS011;3570;43.080;25.628;2022-08-19T12:30:31;6.38;;;4.32;;
7057;SDS011;3570;43.080;25.628;2022-08-19T12:33:15;5.88;;;4.82;;
7057;SDS011;3570;43.080;25.628;2022-08-19T12:36:03;6.85;;;5.13;;
7057;SDS011;3570;43.080;25.628;2022-08-19T12:38:49;7.25;;;4.55;;
7057;SDS011;3570;43.080;25.628;2022-08-19T12:41:33;6.03;;;5.43;;
7057;SDS011;3570;43.080;25.628;2022-08-19T12:44:17;6.57;;;4.88;;
7057;SDS011;3570;43.080;25.628;2022-08-19T12:47:02;5.72;;;5.13;;
7057;SDS011;3570;43.080;25.628;2022-08-19T12:49:48;10.75;;;4.93;;
7057;SDS011;3570;43.080;25.628;2022-08-19T12:52:32;9.95;;;4.78;;
7057;SDS011;3570;43.080;25.628;2022-08-19T12:55:16;9.77;;;5.50;;
7057;SDS011;3570;43.080;25.628;2022-08-19T12:58:02;9.43;;;5.07;;
7057;SDS011;3570;43.080;25.628;2022-08-19T13:00:46;9.30;;;5.65;;
7057;SDS011;3570;43.080;25.628;2022-08-19T13:03:30;7.90;;;5.28;;
7057;SDS011;3570;43.080;25.628;2022-08-19T13:06:14;5.10;;;4.60;;
7057;SDS011;3570;43.080;25.628;2022-08-19T13:08:58;5.80;;;4.65;;
7057;SDS011;3570;43.080;25.628;2022-08-19T13:11:42;11.80;;;4.75;;
7057;SDS011;3570;43.080;25.628;2022-08-19T13:14:28;5.72;;;5.00;;
7057;SDS011;3570;43.080;25.628;2022-08-19T13:17:15;5.07;;;4.63;;
7057;SDS011;3570;43.080;25.628;2022-08-19T13:20:00;9.80;;;4.80;;
7057;SDS011;3570;43.080;25.628;2022-08-19T13:22:46;7.28;;;5.32;;
7057;SDS011;3570;43.080;25.628;2022-08-19T13:25:31;9.40;;;5.03;;
7057;SDS011;3570;43.080;25.628;2022-08-19T13:28:15;7.50;;;5.57;;
7057;SDS011;3570;43.080;25.628;2022-08-19T13:30:59;7.28;;;5.35;;
7057;SDS011;3570;43.080;25.628;2022-08-19T13:34:03;7.20;;;5.18;;
7057;SDS011;3570;43.080;25.628;2022-08-19T13:36:49;7.47;;;5.30;;
7057;SDS011;3570;43.080;25.628;2022-08-19T13:39:33;6.43;;;4.80;;
7057;SDS011;3570;43.080;25.628;2022-08-19T13:42:18;8.68;;;4.70;;
7057;SDS011;3570;43.080;25.628;2022-08-19T13:45:03;7.72;;;5.32;;
7057;SDS011;3570;43.080;25.628;2022-08-19T13:47:50;5.00;;;4.45;;
7057;SDS011;3570;43.080;25.628;2022-08-19T13:50:41;5.82;;;5.10;;
7057;SDS011;3570;43.080;25.628;2022-08-19T13:53:27;8.48;;;5.10;;
7057;SDS011;3570;43.080;25.628;2022-08-19T13:56:12;6.40;;;4.45;;
7057;SDS011;3570;43.080;25.628;2022-08-19T13:58:58;8.85;;;4.63;;
7057;SDS011;3570;43.080;25.628;2022-08-19T14:01:42;9.10;;;5.30;;
7057;SDS011;3570;43.080;25.628;2022-08-19T14:04:28;6.00;;;4.50;;
7057;SDS011;3570;43.080;25.628;2022-08-19T14:07:12;8.95;;;5.00;;
7057;SDS011;3570;43.080;25.628;2022-08-19T14:09:57;6.88;;;4.80;;
7057;SDS011;3570;43.080;25.628;2022-08-19T14:12:41;7.05;;;4.55;;
7057;SDS011;3570;43.080;25.628;2022-08-19T14:15:25;9.75;;;5.15;;
7057;SDS011;3570;43.080;25.628;2022-08-19T14:18:10;11.25;;;5.32;;
7057;SDS011;3570;43.080;25.628;2022-08-19T14:20:54;6.13;;;4.90;;
7057;SDS011;3570;43.080;25.628;2022-08-19T14:23:39;8.05;;;5.40;;
7057;SDS011;3570;43.080;25.628;2022-08-19T14:26:23;12.40;;;5.25;;
7057;SDS011;3570;43.080;25.628;2022-08-19T14:29:07;6.93;;;4.70;;
7057;SDS011;3570;43.080;25.628;2022-08-19T14:31:51;7.38;;;4.60;;
7057;SDS011;3570;43.080;25.628;2022-08-19T14:34:35;7.15;;;4.97;;
7057;SDS011;3570;43.080;25.628;2022-08-19T14:37:20;12.05;;;4.80;;
7057;SDS011;3570;43.080;25.628;2022-08-19T14:40:06;7.93;;;4.55;;
7057;SDS011;3570;43.080;25.628;2022-08-19T14:42:52;6.38;;;4.95;;
7057;SDS011;3570;43.080;25.628;2022-08-19T14:45:39;5.28;;;4.63;;
7057;SDS011;3570;43.080;25.628;2022-08-19T14:48:23;9.43;;;4.70;;
7057;SDS011;3570;43.080;25.628;2022-08-19T14:51:07;9.85;;;5.05;;
7057;SDS011;3570;43.080;25.628;2022-08-19T14:53:52;6.47;;;4.30;;
7057;SDS011;3570;43.080;25.628;2022-08-19T14:56:37;9.10;;;5.15;;
7057;SDS011;3570;43.080;25.628;2022-08-19T14:59:23;5.93;;;4.72;;
7057;SDS011;3570;43.080;25.628;2022-08-19T15:02:07;9.40;;;4.60;;
7057;SDS011;3570;43.080;25.628;2022-08-19T15:04:51;10.98;;;5.55;;
7057;SDS011;3570;43.080;25.628;2022-08-19T15:07:36;11.25;;;5.28;;
7057;SDS011;3570;43.080;25.628;2022-08-19T15:10:22;4.90;;;4.38;;
7057;SDS011;3570;43.080;25.628;2022-08-19T15:13:07;7.32;;;4.47;;
7057;SDS011;3570;43.080;25.628;2022-08-19T15:15:53;6.20;;;4.22;;
7057;SDS011;3570;43.080;25.628;2022-08-19T15:18:37;8.50;;;5.43;;
7057;SDS011;3570;43.080;25.628;2022-08-19T15:21:21;6.47;;;4.45;;
7057;SDS011;3570;43.080;25.628;2022-08-19T15:24:06;8.40;;;5.22;;
7057;SDS011;3570;43.080;25.628;2022-08-19T15:26:54;6.68;;;4.60;;
7057;SDS011;3570;43.080;25.628;2022-08-19T15:29:39;7.25;;;4.03;;
7057;SDS011;3570;43.080;25.628;2022-08-19T15:32:23;6.32;;;4.93;;
7057;SDS011;3570;43.080;25.628;2022-08-19T15:35:09;4.80;;;4.40;;
7057;SDS011;3570;43.080;25.628;2022-08-19T15:37:53;6.60;;;4.57;;
7057;SDS011;3570;43.080;25.628;2022-08-19T15:40:39;7.43;;;4.82;;
7057;SDS011;3570;43.080;25.628;2022-08-19T15:43:24;7.20;;;4.68;;
7057;SDS011;3570;43.080;25.628;2022-08-19T15:46:08;8.98;;;5.43;;
7057;SDS011;3570;43.080;25.628;2022-08-19T15:48:52;8.32;;;4.97;;
7057;SDS011;3570;43.080;25.628;2022-08-19T15:51:37;5.70;;;5.05;;
7057;SDS011;3570;43.080;25.628;2022-08-19T15:54:24;5.25;;;4.50;;
7057;SDS011;3570;43.080;25.628;2022-08-19T15:57:08;9.07;;;5.13;;
7057;SDS011;3570;43.080;25.628;2022-08-19T16:00:04;10.93;;;4.70;;
7057;SDS011;3570;43.080;25.628;2022-08-19T16:03:10;7.22;;;4.68;;
7057;SDS011;3570;43.080;25.628;2022-08-19T16:06:15;7.07;;;4.63;;
7057;SDS011;3570;43.080;25.628;2022-08-19T16:09:08;7.68;;;4.72;;
7057;SDS011;3570;43.080;25.628;2022-08-19T16:11:53;9.25;;;4.85;;
7057;SDS011;3570;43.080;25.628;2022-08-19T16:14:38;8.63;;;4.57;;
7057;SDS011;3570;43.080;25.628;2022-08-19T16:17:23;7.18;;;5.15;;
7057;SDS011;3570;43.080;25.628;2022-08-19T16:20:07;5.68;;;4.97;;
7057;SDS011;3570;43.080;25.628;2022-08-19T16:22:56;6.97;;;5.05;;
7057;SDS011;3570;43.080;25.628;2022-08-19T16:25:41;6.80;;;4.90;;
7057;SDS011;3570;43.080;25.628;2022-08-19T16:28:31;6.43;;;5.22;;
7057;SDS011;3570;43.080;25.628;2022-08-19T16:31:16;9.32;;;5.15;;
7057;SDS011;3570;43.080;25.628;2022-08-19T16:34:00;8.60;;;5.40;;
7057;SDS011;3570;43.080;25.628;2022-08-19T16:36:48;8.55;;;5.53;;
7057;SDS011;3570;43.080;25.628;2022-08-19T16:39:33;8.98;;;5.82;;
7057;SDS011;3570;43.080;25.628;2022-08-19T16:42:18;6.43;;;5.35;;
7057;SDS011;3570;43.080;25.628;2022-08-19T16:45:05;7.95;;;5.60;;
7057;SDS011;3570;43.080;25.628;2022-08-19T16:48:01;8.57;;;5.72;;
7057;SDS011;3570;43.080;25.628;2022-08-19T16:50:47;12.27;;;6.60;;
7057;SDS011;3570;43.080;25.628;2022-08-19T16:53:32;11.40;;;6.15;;